Flight Track Log - Related Links

Times and Time Zones

All times are in EDT time to prevent confusion due to time zone crossing. See the N23139 flight status page for this flight to view local times or setup timezone preferences in your user account.

Time Position Orientation Groundspeed Altitude Reporting Facility
EDT Latitude Longitude Course Direction KTS MPH feet Rate Location/Type
Thu 11:31:20 AM 35.8967 -78.7767 270° West 171 197 1,200  Level Washington Center
Thu 11:31:57 AM 35.9242 -78.7597 27° Northeast 191 220 2,500 2,110 Climbing Washington Center
Thu 11:32:51 AM 35.9836 -78.7261 25° Northeast 256 295 4,400 2,126 Climbing Washington Center
Thu 11:34:00 AM 35.8382 -79.2352 263° West  Level FlightAware Approximate
Thu 11:34:04 AM 36.0511 -78.7803 327° Northwest 250 288 7,000  Level Washington Center
Thu 11:35:00 AM 35.8280 -79.3481 262° West  Level FlightAware Approximate
Thu 11:35:05 AM 36.0342 -78.8592 255° West 247 284 7,000  Level Washington Center
Thu 11:36:00 AM 35.8167 -79.4608 270° West  Level FlightAware Approximate
Thu 11:36:38 AM 35.9808 -78.9803 241° Southwest 253 291 10,200  Level Washington Center
Thu 11:37:38 AM 35.9431 -79.0658 241° Southwest 269 310 11,600 1,350 Climbing Washington Center
Thu 11:38:38 AM 35.9006 -79.1564 240° Southwest 300 345 12,900 1,607 Climbing Washington Center
Thu 11:40:41 AM 35.8297 -79.3669 248° West 336 387 16,500 1,639 Climbing Atlanta Center
Thu 11:41:41 AM 35.8211 -79.4775 265° West 331 381 17,900 1,600 Climbing Atlanta Center
Thu 11:42:41 AM 35.8083 -79.5833 262° West 331 381 19,700 1,750 Climbing Atlanta Center
Thu 11:43:41 AM 35.7892 -79.6842 257° West 324 373 21,400 1,700 Climbing Atlanta Center
Thu 11:44:41 AM 35.7717 -79.7825 258° West 319 367 23,100 1,700 Climbing Atlanta Center
Thu 11:45:41 AM 35.7544 -79.8881 259° West 319 367 24,800 1,750 Climbing Atlanta Center
Thu 11:46:41 AM 35.7392 -79.9914 260° West 319 367 26,600 1,950 Climbing Atlanta Center
Thu 11:47:41 AM 35.7214 -80.0869 257° West 308 354 28,700 2,000 Climbing Atlanta Center
Thu 11:48:41 AM 35.7036 -80.1850 257° West 280 322 30,600 1,650 Climbing Atlanta Center
Thu 11:49:41 AM 35.6856 -80.2728 256° West 275 316 32,000 1,250 Climbing Atlanta Center
Thu 11:50:41 AM 35.6717 -80.3678 260° West 280 322 33,100 1,000 Climbing Atlanta Center
Thu 11:51:41 AM 35.6556 -80.4581 258° West 280 322 34,000 500 Climbing Atlanta Center
Thu 11:52:41 AM 35.6228 -80.5464 245° Southwest 286 329 34,100 500 Climbing Atlanta Center
Thu 11:53:41 AM 35.5836 -80.6400 243° Southwest 304 350 35,000 450 Climbing Atlanta Center
Thu 11:54:41 AM 35.5406 -80.7414 242° Southwest 315 362 35,000  Level Atlanta Center
Thu 11:55:41 AM 35.4972 -80.8450 243° Southwest 340 391 35,000  Level Atlanta Center
Thu 11:56:41 AM 35.4519 -80.9514 242° Southwest 360 414 35,000  Level Atlanta Center
Thu 11:57:41 AM 35.4086 -81.0497 242° Southwest 366 421 35,000 300 Level Atlanta Center
Thu 11:58:41 AM 35.3633 -81.1608 243° Southwest 371 427 35,600 500 Climbing Atlanta Center
Thu 11:59:41 AM 35.3178 -81.2694 243° Southwest 366 421 36,000 200 Climbing Atlanta Center
Thu 12:00:41 PM 35.2661 -81.3881 242° Southwest 366 421 36,000  Level Atlanta Center
Thu 12:01:41 PM 35.2206 -81.4989 243° Southwest 366 421 36,000  Level Atlanta Center
Thu 12:02:41 PM 35.1747 -81.6072 243° Southwest 371 427 36,000  Level Atlanta Center
Thu 12:03:41 PM 35.1267 -81.7125 241° Southwest 371 427 36,000  Level Atlanta Center
Thu 12:04:41 PM 35.0786 -81.8206 242° Southwest 371 427 36,000  Level Atlanta Center
Thu 12:05:41 PM 35.0386 -81.9281 246° West 365 420 36,000  Level Atlanta Center
Thu 12:06:41 PM 35.0322 -82.0450 266° West 344 396 36,000  Level Atlanta Center
Thu 12:07:41 PM 35.0319 -82.1617 270° West 349 402 36,000  Level Atlanta Center
Thu 12:08:41 PM 35.0297 -82.2783 269° West 349 402 36,000  Level Atlanta Center
Thu 12:09:41 PM 35.0019 -82.3881 253° West 343 395 36,000  Level Atlanta Center
Thu 12:10:41 PM 34.9700 -82.4900 249° West 353 406 36,000  Level Atlanta Center
Thu 12:11:41 PM 34.9419 -82.5969 252° West 348 400 36,000  Level Atlanta Center
Thu 12:12:41 PM 34.9119 -82.7114 252° West 347 399 36,000  Level Atlanta Center
Thu 12:13:41 PM 34.8797 -82.8233 251° West 352 405 36,000  Level Atlanta Center
Thu 12:14:41 PM 34.8453 -82.9428 251° West 352 405 36,000  Level Atlanta Center
Thu 12:15:41 PM 34.8150 -83.0572 252° West 352 405 36,000  Level Atlanta Center
Thu 12:16:41 PM 34.7825 -83.1661 250° West 352 405 36,000  Level Atlanta Center
Thu 12:17:41 PM 34.7539 -83.2728 252° West 352 405 36,000  Level Atlanta Center
Thu 12:18:41 PM 34.7233 -83.3817 251° West 352 405 36,000  Level Atlanta Center
Thu 12:19:41 PM 34.6925 -83.4956 252° West 352 405 36,000  Level Atlanta Center
Thu 12:20:41 PM 34.6617 -83.6044 251° West 347 399 36,000  Level Atlanta Center
Thu 12:21:41 PM 34.6328 -83.7156 252° West 347 399 36,000  Level Atlanta Center
Thu 12:22:41 PM 34.5997 -83.8242 250° West 352 405 36,000  Level Atlanta Center
Thu 12:23:41 PM 34.5686 -83.9353 251° West 352 405 36,000  Level Atlanta Center
Thu 12:24:41 PM 34.5353 -84.0489 250° West 352 405 36,000  Level Atlanta Center
Thu 12:25:41 PM 34.5039 -84.1572 251° West 347 399 36,000  Level Atlanta Center
Thu 12:26:41 PM 34.4744 -84.2706 253° West 353 406 36,000  Level Atlanta Center
Thu 12:27:41 PM 34.4367 -84.3914 249° West 353 406 36,000  Level Atlanta Center
Thu 12:28:41 PM 34.4050 -84.5044 251° West 348 400 36,000  Level Atlanta Center
Thu 12:29:41 PM 34.3711 -84.6150 250° West 353 406 36,000  Level Atlanta Center
Thu 12:30:41 PM 34.3392 -84.7256 251° West 353 406 36,000  Level Atlanta Center
Thu 12:31:41 PM 34.3050 -84.8386 250° West 353 406 36,000  Level Atlanta Center
Thu 12:32:41 PM 34.2731 -84.9514 251° West 353 406 36,000  Level Atlanta Center
Thu 12:33:41 PM 34.2389 -85.0614 249° West 353 406 36,000  Level Atlanta Center
Thu 12:34:41 PM 34.2044 -85.1717 249° West 353 406 36,000  Level Atlanta Center
Thu 12:35:41 PM 34.1700 -85.2867 250° West 353 406 36,000  Level Atlanta Center
Thu 12:36:41 PM 34.1394 -85.3967 251° West 353 406 36,000  Level Atlanta Center
Thu 12:37:41 PM 34.1028 -85.5089 248° West 353 406 36,000  Level Atlanta Center
Thu 12:38:41 PM 34.0681 -85.6211 250° West 358 412 36,000  Level Atlanta Center
Thu 12:39:41 PM 34.0350 -85.7358 251° West 365 420 36,000  Level Atlanta Center
Thu 12:40:41 PM 34.0047 -85.8281 248° West 365 420 36,000  Level Atlanta Center
Thu 12:41:41 PM 33.9675 -85.9425 249° West 358 412 36,000  Level Atlanta Center
Thu 12:42:41 PM 33.9344 -86.0519 250° West 358 412 36,000  Level Atlanta Center
Thu 12:43:41 PM 33.8992 -86.1661 250° West 358 412 36,000  Level Atlanta Center
Thu 12:44:41 PM 33.8636 -86.2778 249° West 358 412 36,000  Level Atlanta Center
Thu 12:45:41 PM 33.8303 -86.3894 250° West 364 419 36,000  Level Atlanta Center
Thu 12:46:41 PM 33.7925 -86.5033 248° West 364 419 36,000  Level Atlanta Center
Thu 12:47:41 PM 33.7569 -86.6172 249° West 369 425 36,000  Level Atlanta Center
Thu 12:48:41 PM 33.7211 -86.7286 249° West 369 425 36,000  Level Atlanta Center
Thu 12:49:41 PM 33.6850 -86.8422 249° West 369 425 36,000  Level Atlanta Center
Thu 12:50:41 PM 33.6492 -86.9536 249° West 369 425 36,000  Level Atlanta Center
Thu 12:51:41 PM 33.6111 -87.0644 248° West 364 419 36,000  Level Atlanta Center
Thu 12:52:41 PM 33.5728 -87.1778 248° West 369 425 36,000  Level Atlanta Center
Thu 12:54:21 PM 33.5067 -87.3775 248° West 362 417 36,000  Level Memphis Center
Thu 12:55:21 PM 33.4675 -87.4886 247° West 362 417 36,000  Level Memphis Center
Thu 12:56:21 PM 33.4283 -87.5994 247° West 362 417 36,000  Level Memphis Center
Thu 12:57:21 PM 33.3908 -87.7100 248° West 362 417 36,000  Level Memphis Center
Thu 12:58:21 PM 33.3494 -87.8231 246° West 362 417 36,000  Level Memphis Center
Thu 12:59:21 PM 33.3122 -87.9361 249° West 362 417 36,000  Level Memphis Center
Thu 01:00:21 PM 33.2786 -88.0339 248° West 362 417 36,000  Level Memphis Center
Thu 01:01:21 PM 33.2389 -88.1467 247° West 362 417 36,000  Level Memphis Center
Thu 01:02:21 PM 33.2014 -88.2717 250° West 362 417 36,000  Level Memphis Center
Thu 01:03:21 PM 33.1592 -88.3794 245° Southwest 362 417 36,000  Level Memphis Center
Thu 01:04:21 PM 33.1192 -88.4919 247° West 362 417 36,000  Level Memphis Center
Thu 01:05:21 PM 33.0811 -88.6044 248° West 362 417 36,000  Level Memphis Center
Thu 01:06:21 PM 33.0408 -88.7142 246° West 362 417 36,000  Level Memphis Center
Thu 01:07:21 PM 33.0006 -88.8264 247° West 367 422 36,000  Level Memphis Center
Thu 01:08:21 PM 32.9581 -88.9386 246° West 367 422 36,000  Level Memphis Center
Thu 01:09:21 PM 32.9197 -89.0506 248° West 367 422 36,000  Level Memphis Center
Thu 01:10:21 PM 32.8792 -89.1625 247° West 367 422 36,000  Level Memphis Center
Thu 01:11:21 PM 32.8364 -89.2744 246° West 372 428 36,000  Level Memphis Center
Thu 01:12:21 PM 32.7956 -89.3861 247° West 372 428 36,000  Level Memphis Center
Thu 01:13:21 PM 32.7544 -89.5000 247° West 382 440 36,000  Level Memphis Center
Thu 01:14:21 PM 32.7136 -89.6092 246° West 377 434 36,000  Level Memphis Center
Thu 01:15:21 PM 32.6725 -89.7256 247° West 377 434 36,000  Level Memphis Center
Thu 01:16:21 PM 32.6292 -89.8392 246° West 377 434 36,000  Level Memphis Center
Thu 01:17:21 PM 32.5878 -89.9531 247° West 377 434 36,000  Level Memphis Center
Thu 01:18:21 PM 32.5464 -90.0639 246° West 377 434 36,000  Level Memphis Center
Thu 01:19:21 PM 32.5028 -90.1750 245° Southwest 383 441 36,000  Level Memphis Center
Thu 01:20:21 PM 32.4486 -90.2833 239° Southwest 383 441 36,000  Level Memphis Center
Thu 01:21:21 PM 32.3900 -90.3869 236° Southwest 388 447 36,000  Level Memphis Center
Thu 01:22:21 PM 32.3336 -90.4950 238° Southwest 388 447 36,000  Level Memphis Center
Thu 01:23:21 PM 32.2792 -90.6006 239° Southwest 388 447 36,000  Level Memphis Center
Thu 01:24:21 PM 32.2225 -90.7083 238° Southwest 388 447 36,000  Level Memphis Center
Thu 01:25:21 PM 32.1658 -90.8161 238° Southwest 388 447 36,000  Level Memphis Center
Thu 01:26:21 PM 32.1092 -90.9214 238° Southwest 383 441 36,000  Level Memphis Center
Thu 01:26:47 PM 32.0917 -90.9608 242° Southwest 384 442 36,000  Level Houston Center
Thu 01:27:49 PM 32.0347 -91.0669 238° Southwest 385 443 36,000  Level Houston Center
Thu 01:28:52 PM 31.9769 -91.1742 238° Southwest 388 447 36,000  Level Houston Center
Thu 01:29:54 PM 31.9186 -91.2817 237° Southwest 390 449 36,000  Level Houston Center
Thu 01:30:56 PM 31.8497 -91.4108 238° Southwest 390 449 36,000  Level Houston Center
Thu 01:31:58 PM 31.7928 -91.5178 238° Southwest 388 447 36,000  Level Houston Center
Thu 01:33:00 PM 31.7353 -91.6256 238° Southwest 389 448 36,000  Level Houston Center
Thu 01:34:02 PM 31.6764 -91.7322 237° Southwest 390 449 36,000  Level Houston Center
Thu 01:35:05 PM 31.6186 -91.8392 238° Southwest 389 448 36,000  Level Houston Center
Thu 01:36:07 PM 31.5489 -91.9686 238° Southwest 393 452 36,000  Level Houston Center
Thu 01:37:09 PM 31.4914 -92.0719 237° Southwest 392 451 36,000  Level Houston Center
Thu 01:38:11 PM 31.4322 -92.1781 237° Southwest 389 448 36,000  Level Houston Center
Thu 01:39:13 PM 31.3739 -92.2856 238° Southwest 393 452 36,000  Level Houston Center
Thu 01:40:15 PM 31.3150 -92.3928 237° Southwest 394 453 36,000  Level Houston Center
Thu 01:41:17 PM 31.2422 -92.5217 237° Southwest 396 456 36,000  Level Houston Center
Thu 01:42:20 PM 31.1842 -92.6297 238° Southwest 394 453 36,000  Level Houston Center
Thu 01:43:22 PM 31.1239 -92.7369 237° Southwest 395 455 36,000  Level Houston Center
Thu 01:44:24 PM 31.0647 -92.8436 237° Southwest 394 453 36,000 -290 Level Houston Center
Thu 01:45:26 PM 31.0044 -92.9506 237° Southwest 395 455 35,400 -968 Descending Houston Center
Thu 01:46:28 PM 30.9442 -93.0564 236° Southwest 395 455 34,000 -1,790 Descending Houston Center
Thu 01:47:30 PM 30.8719 -93.1869 237° Southwest 400 460 31,700 -1,937 Descending Houston Center
Thu 01:48:35 PM 30.8100 -93.2964 237° Southwest 405 466 29,900 -1,824 Descending Houston Center
Thu 01:49:35 PM 30.7450 -93.4100 236° Southwest 419 482 27,900 -1,918 Descending Houston Center
Thu 01:50:37 PM 30.6800 -93.5253 237° Southwest 428 493 26,000 -1,984 Descending Houston Center
Thu 01:51:39 PM 30.6047 -93.6592 237° Southwest 419 482 23,800 -1,984 Descending Houston Center
Thu 01:52:41 PM 30.5414 -93.7689 236° Southwest 416 479 21,900 -1,790 Descending Houston Center
Thu 01:53:43 PM 30.4794 -93.8775 237° Southwest 410 472 20,100 -1,790 Descending Houston Center
Thu 01:54:45 PM 30.4150 -93.9869 236° Southwest 412 474 18,200 -1,935 Descending Houston Center
Thu 01:55:47 PM 30.3542 -94.0922 236° Southwest 404 465 16,100 -2,269 Descending Houston Center
Thu 01:56:44 PM 30.2914 -94.2022 237° Southwest 373 429 13,700 -1,920 Descending Houston Center
Thu 01:57:52 PM 30.2317 -94.3031 236° Southwest 349 402 12,100 -934 Descending Houston Center
Thu 01:58:46 PM 30.1922 -94.3894 242° Southwest 316 364 11,800 -716 Descending Houston Center
Thu 01:59:41 PM 30.1778 -94.4761 259° West 304 350 10,800 -1,114 Descending Houston Center
Thu 01:59:56 PM 30.1747 -94.4942 259° West 303 349 10,500 -1,418 Descending Houston Center
Thu 02:00:36 PM 30.1625 -94.5578 257° West 278 320 9,500 -1,355 Descending Houston Center
Thu 02:00:58 PM 30.1603 -94.5831 264° West 286 329 9,100 -1,258 Descending Houston Center
Thu 02:01:38 PM 30.1481 -94.6467 257° West 276 318 8,200 -1,161 Descending Houston Center
Thu 02:02:00 PM 30.1461 -94.6686 264° West 274 315 7,900 -1,180 Descending Houston Center
Thu 02:02:39 PM 30.1336 -94.7356 258° West 277 319 7,000 -1,238 Descending Houston Center
Thu 02:03:03 PM 30.1303 -94.7550 259° West 276 318 6,600 -806 Descending Houston Center
Thu 02:03:46 PM 30.1175 -94.8294 259° West 275 316 6,100 -677 Descending Houston Center
Thu 02:04:05 PM 30.1161 -94.8403 262° West 273 314 5,900  Descending Houston Center
Thu 02:04:49 PM 30.1050 -94.9203 261° West 279 321 6,100 97 Climbing Houston Center
Thu 02:05:07 PM 30.1067 -94.9450 274° West 277 319 6,000  Descending Houston Center
Thu 02:05:54 PM 30.1058 -95.0194 269° West 281 323 6,100  Climbing Houston Center
Thu 02:06:09 PM 30.1064 -95.0336 273° West 279 321 6,000  Descending Houston Center
Thu 02:06:49 PM 30.1053 -95.1017 269° West 276 318 6,100  Climbing Houston Center
Thu 02:07:11 PM 30.1061 -95.1217 273° West 275 316 6,000  Descending Houston Center
Thu 02:07:51 PM 30.1050 -95.1886 269° West 259 298 6,100  Climbing Houston Center
Thu 02:08:13 PM 30.1069 -95.2044 278° West 261 300 6,000  Descending Houston Center
Thu 02:08:53 PM 30.1058 -95.2658 269° West 236 272 6,100  Climbing Houston Center
Thu 02:09:15 PM 30.1069 -95.2947 273° West 238 274 6,000 -200 Descending Houston Center
Thu 02:09:53 PM 30.1067 -95.3431 270° West 230 265 5,900 -762 Descending Houston Center
Thu 02:10:18 PM 30.1069 -95.3678 271° West 231 266 5,200 -1,645 Descending Houston Center
Thu 02:10:55 PM 30.1072 -95.4200 270° West 237 273 4,200 -1,452 Descending Houston Center
Thu 02:11:20 PM 30.1067 -95.4431 268° West 234 269 3,700 -896 Descending Houston Center
Thu 02:12:02 PM 30.0842 -95.4906 241° Southwest 219 252 3,200 -774 Descending Houston Center
Thu 02:12:22 PM 30.0719 -95.4931 190° South 236 272 2,900 -900 Descending Houston Center

Login

Don't have an account? Register now (free) for customized features, flight alerts, and more!